Alpine Link — V7SZ7 — position and weather

sailwx.info

Track history (hours):
 
Tides and Currents Weather Stations Pressure Air Temp Water Temp Dewpoint Dewpoint Depression Visibility Wind Speed Wind Dir Waves Ship Positions

Alpine Link

Last reported at 2017-Apr-18 16:41 UTC. Time now 2017-Apr-27 19:02 UTC.
Position N 17°32' W 066°12'.
Warning: this ship's position is 9 days out of date.

Length 183 m; draft 6.8 m.

Type: Tanker. MMSI: 538003758.

Date/timePositionNaut miles runAvg speedWind from/ knotsBaromVisibWave heightAir tempDewpointWater temp
2017-Apr-18 16:41N 17°32' W 066°12'213.9
2017-Apr-18 16:30N 17°34' W 066°10'913.8
2017-Apr-18 15:51N 17°41' W 066°04'514.0
2017-Apr-18 15:30N 17°44' W 066°01'714.1
2017-Apr-18 14:58N 17°50' W 065°56'  
2017-Apr-14 18:33N 17°53' W 065°52'112.8
2017-Apr-14 18:29N 17°53' W 065°53'613.2
2017-Apr-14 18:00N 17°48' W 065°57'713.4
2017-Apr-14 17:30N 17°43' W 066°02'713.5
2017-Apr-14 17:00N 17°38' W 066°07'  
Track history (hours):
 
Tides and Currents Weather Stations Pressure Air Temp Water Temp Dewpoint Dewpoint Depression Visibility Wind Speed Wind Dir Waves Ship Positions

Alpine Link

Last reported at 2017-Apr-18 16:41 UTC. Time now 2017-Apr-27 19:02 UTC.
Position N 17°32' W 066°12'.
Warning: this ship's position is 9 days out of date.

Length 183 m; draft 6.8 m.

Type: Tanker. MMSI: 538003758.

Date/timePositionNaut miles runAvg speedWind from/ knotsBaromVisibWave heightAir tempDewpointWater temp
2017-Apr-18 16:41N 17°32' W 066°12'213.9
2017-Apr-18 16:30N 17°34' W 066°10'913.8
2017-Apr-18 15:51N 17°41' W 066°04'514.0
2017-Apr-18 15:30N 17°44' W 066°01'714.1
2017-Apr-18 14:58N 17°50' W 065°56'  
2017-Apr-14 18:33N 17°53' W 065°52'112.8
2017-Apr-14 18:29N 17°53' W 065°53'613.2
2017-Apr-14 18:00N 17°48' W 065°57'713.4
2017-Apr-14 17:30N 17°43' W 066°02'713.5
2017-Apr-14 17:00N 17°38' W 066°07'  

Dump ship's entire track history